»·PEaware :: N5GL KLGB-KPSP

N5GL :: KLGB-KPSP

FLIGHT INFORMATION

Flight Status: Arrived
Operator: Privately registered:
United States
More flights under this callsign
Pilot: Georg L. (13308)
Aircraft: SOCATA TBM-900
(TBM9)
More flights by this aircraft type
Origin: KLGB Long Beach
United States
Destination: KPSP Palm Springs Intl
United States
More flights between these airports :: More routes between these airports
Route: +SLI V64 TRM
File this flight plan on PilotEdge
Remarks:
Altitude:
(Current/Filed)
19,000ft
Speed:
(Current/Filed)
297kts
Departed: 12-Apr-20 10:24 AM
Arrived: 12-Apr-20 10:52 AM
Distance/Time
Traveled:
82nm/0:28
Distance/Time
To Go:
Arrived

Flight Plot

Page will automatically refresh every two minutes.


Map Options




Map Legend


Flown Route
Filed Route
Departure Airport
Arrival Airport
Navaid (VOR, NDB)
Fix

Horizontal Profiles

Position Reports

Time Latitude Longitude Heading Altitude Ground
Speed
12-Apr-20 09:59 33.811980 -118.150814 89 63ft 0kts
12-Apr-20 10:00 33.811980 -118.150814 89 63ft 0kts
12-Apr-20 10:01 33.811980 -118.150814 89 63ft 0kts
12-Apr-20 10:02 33.811980 -118.150814 89 63ft 0kts
12-Apr-20 10:03 33.811980 -118.150814 89 63ft 0kts
12-Apr-20 10:04 33.811980 -118.150814 89 63ft 0kts
12-Apr-20 10:05 33.811980 -118.150814 89 63ft 0kts
12-Apr-20 10:06 33.811980 -118.150814 89 63ft 0kts
12-Apr-20 10:07 33.811980 -118.150814 89 63ft 0kts
12-Apr-20 10:08 33.811980 -118.150814 89 63ft 0kts
12-Apr-20 10:09 33.811980 -118.150814 89 63ft 0kts
12-Apr-20 10:10 33.811980 -118.150814 89 63ft 0kts
12-Apr-20 10:11 33.811980 -118.150814 89 63ft 0kts
12-Apr-20 10:12 33.811980 -118.150814 89 63ft 0kts
12-Apr-20 10:13 33.811980 -118.150814 89 63ft 0kts
12-Apr-20 10:14 33.811980 -118.150814 89 63ft 0kts
12-Apr-20 10:15 33.811980 -118.150814 89 63ft 0kts
12-Apr-20 10:16 33.811980 -118.150814 89 63ft 0kts
12-Apr-20 10:17 33.811980 -118.150814 89 63ft 0kts
12-Apr-20 10:18 33.811980 -118.150814 89 63ft 0kts
12-Apr-20 10:19 33.812675 -118.151160 0 63ft 0kts
12-Apr-20 10:20 33.813085 -118.149079 88 63ft 12kts
12-Apr-20 10:21 33.813322 -118.148059 4 63ft 0kts
12-Apr-20 10:22 33.813765 -118.148249 292 63ft 6kts
12-Apr-20 10:23 33.814072 -118.170167 272 881ft 120kts
12-Apr-20 10:24 33.793455 -118.200110 211 3005ft 155kts
12-Apr-20 10:25 33.743024 -118.232965 189 2983ft 236kts
12-Apr-20 10:26 33.692353 -118.193937 141 4718ft 206kts
12-Apr-20 10:27 33.671119 -118.129392 101 6280ft 211kts
12-Apr-20 10:28 33.659460 -118.055094 101 7003ft 250kts
12-Apr-20 10:29 33.646141 -117.969457 101 7000ft 265kts
12-Apr-20 10:30 33.632636 -117.882844 101 7672ft 246kts
12-Apr-20 10:31 33.620203 -117.807827 101 9789ft 218kts
12-Apr-20 10:32 33.607656 -117.735924 84 11715ft 222kts
12-Apr-20 10:33 33.615176 -117.660618 79 13035ft 248kts
12-Apr-20 10:34 33.624056 -117.571398 79 13022ft 282kts
12-Apr-20 10:35 33.633399 -117.476377 80 13017ft 288kts
12-Apr-20 10:36 33.642776 -117.380317 80 13013ft 288kts
12-Apr-20 10:37 33.652077 -117.284300 80 13007ft 287kts
12-Apr-20 10:38 33.661226 -117.189081 80 13007ft 286kts
12-Apr-20 10:39 33.670376 -117.093388 81 13008ft 286kts
12-Apr-20 10:40 33.679378 -116.998100 83 13009ft 287kts
12-Apr-20 10:41 33.688258 -116.903171 84 13009ft 283kts
12-Apr-20 10:42 33.684764 -116.810920 97 13053ft 271kts
12-Apr-20 10:43 33.677055 -116.720159 97 13031ft 275kts
12-Apr-20 10:44 33.669099 -116.627282 97 12630ft 290kts
12-Apr-20 10:45 33.660522 -116.527750 96 10640ft 297kts
12-Apr-20 10:46 33.679235 -116.437715 47 8597ft 294kts
12-Apr-20 10:47 33.739395 -116.390373 336 5305ft 253kts
12-Apr-20 10:48 33.774457 -116.452358 305 2772ft 193kts
12-Apr-20 10:49 33.803937 -116.484679 321 1279ft 102kts
12-Apr-20 10:50 33.822679 -116.501450 320 429ft 64kts
12-Apr-20 10:51 33.828702 -116.507579 275 429ft 9kts
12-Apr-20 10:52 33.828503 -116.508320 199 429ft 0kts
12-Apr-20 10:53 33.826191 -116.506827 192 429ft 12kts
12-Apr-20 10:54 33.825509 -116.509486 325 429ft 5kts
12-Apr-20 10:55 33.825686 -116.509546 357 429ft 0kts
12-Apr-20 10:56 33.825686 -116.509546 357 429ft 0kts
12-Apr-20 10:57 33.825686 -116.509546 357 429ft 0kts
12-Apr-20 10:58 33.825686 -116.509546 357 429ft 0kts
12-Apr-20 10:59 33.825686 -116.509546 357 429ft 0kts
12-Apr-20 11:00 33.825686 -116.509546 357 429ft 0kts
12-Apr-20 11:01 33.825686 -116.509546 357 429ft 0kts
12-Apr-20 11:02 33.825686 -116.509546 357 429ft 0kts
12-Apr-20 11:03 33.825686 -116.509546 357 429ft 0kts
12-Apr-20 11:04 33.825686 -116.509546 357 429ft 0kts
12-Apr-20 11:05 33.825686 -116.509546 357 429ft 0kts

Navigation Log

Ident Type
Flight plan parsing failed, navigation log unavailable